Time;durP1;ratioP1;P1;durP2;ratioP2;P2;SDS_P1;SDS_P2;PMS_P1;PMS_P2;Temp;Humidity;BMP_temperature;BMP_pressure;BME280_temperature;BME280_humidity;BME280_pressure;Samples;Min_cycle;Max_cycle;Signal;HPM_P1;HPM_P2
2022/08/27 00:00:42;;;;;;;1.75;1.20;;;26.70;52.10;25.70;101191.00;;;;5086211;28;20449;-71
2022/08/27 00:03:28;;;;;;;1.33;1.23;;;26.70;52.10;25.70;101194.00;;;;5067669;28;20458;-71
2022/08/27 00:06:16;;;;;;;1.73;1.05;;;26.70;52.10;25.70;101191.00;;;;5083935;28;20040;-71
2022/08/27 00:09:02;;;;;;;3.28;1.10;;;26.70;52.10;25.70;101185.00;;;;5077017;28;20086;-71
2022/08/27 00:11:49;;;;;;;1.70;1.02;;;26.70;52.10;25.70;101186.00;;;;5088379;28;20082;-71
2022/08/27 00:14:35;;;;;;;3.15;1.20;;;26.60;52.70;25.70;101189.00;;;;5084549;28;20040;-71
2022/08/27 00:17:21;;;;;;;1.43;0.97;;;26.70;52.20;25.70;101189.00;;;;5082106;28;20055;-71
2022/08/27 00:20:08;;;;;;;2.65;1.17;;;26.70;52.10;25.70;101192.00;;;;5086389;28;20290;-71
2022/08/27 00:22:54;;;;;;;2.35;1.00;;;26.70;52.10;25.70;101183.00;;;;5090102;28;20440;-71
2022/08/27 00:25:40;;;;;;;3.03;0.95;;;26.70;52.10;25.70;101179.00;;;;5090353;28;20139;-71
2022/08/27 00:28:26;;;;;;;1.65;1.05;;;26.60;52.10;25.70;101184.00;;;;5084525;28;20447;-71
2022/08/27 00:31:13;;;;;;;3.58;0.90;;;26.70;52.20;25.70;101186.00;;;;5073559;28;20040;-71
2022/08/27 00:33:59;;;;;;;2.45;1.00;;;26.70;52.30;25.70;101180.00;;;;5090538;28;20044;-71
2022/08/27 00:36:45;;;;;;;0.70;0.70;;;26.60;52.10;25.70;101181.00;;;;5082071;28;20044;-72
2022/08/27 00:39:33;;;;;;;1.70;0.85;;;26.60;52.10;25.70;101184.00;;;;5080326;28;20598;-71
2022/08/27 00:42:19;;;;;;;1.33;0.80;;;26.60;52.10;25.70;101178.00;;;;5077232;28;20093;-71
2022/08/27 00:45:06;;;;;;;2.13;0.95;;;26.70;52.10;25.70;101175.00;;;;5073132;28;20048;-71
2022/08/27 00:47:55;;;;;;;0.70;0.68;;;26.60;52.00;25.70;101175.00;;;;5072703;28;20857;-71
2022/08/27 00:50:46;;;;;;;2.20;1.00;;;26.60;52.10;25.70;101181.00;;;;5074062;28;20040;-71
2022/08/27 00:53:33;;;;;;;2.33;0.68;;;26.70;52.10;25.70;101174.00;;;;5068802;28;20028;-71
2022/08/27 00:56:34;;;;;;;1.92;1.05;;;26.60;52.10;25.70;101169.00;;;;5071697;28;20036;-71
2022/08/27 00:59:23;;;;;;;1.92;0.93;;;26.60;52.10;25.70;101166.00;;;;5083999;28;20036;-71
2022/08/27 01:02:18;;;;;;;1.52;0.70;;;26.60;52.00;25.70;101176.00;;;;5084060;28;20040;-72
2022/08/27 01:05:09;;;;;;;1.10;0.47;;;26.60;52.00;25.70;101173.00;;;;5083658;28;20068;-71
2022/08/27 01:08:13;;;;;;;1.30;0.80;;;26.60;52.10;25.70;101178.00;;;;5074024;28;20456;-71
2022/08/27 01:10:59;;;;;;;1.25;0.52;;;26.60;52.00;25.70;101180.00;;;;5060121;28;20082;-71
2022/08/27 01:13:45;;;;;;;2.38;0.63;;;26.70;52.10;25.70;101178.00;;;;5060214;28;20044;-71
2022/08/27 01:16:40;;;;;;;0.98;0.57;;;26.60;52.00;25.70;101176.00;;;;5065426;28;20040;-71
2022/08/27 01:19:49;;;;;;;1.77;0.65;;;26.60;52.00;25.60;101181.00;;;;5073124;28;20473;-71
2022/08/27 01:23:04;;;;;;;2.15;0.85;;;26.60;52.00;25.60;101181.00;;;;5070219;28;20043;-71
2022/08/27 01:25:51;;;;;;;1.50;0.55;;;26.60;52.00;25.60;101184.00;;;;5073508;28;20127;-71
2022/08/27 01:28:37;;;;;;;2.45;0.63;;;26.60;51.90;25.60;101179.00;;;;5086905;28;20400;-71
2022/08/27 01:31:23;;;;;;;1.02;0.68;;;26.60;52.00;25.60;101182.00;;;;5072704;28;20059;-71
2022/08/27 01:34:09;;;;;;;1.63;0.52;;;26.60;52.00;25.60;101184.00;;;;5084164;28;20047;-71
2022/08/27 01:36:55;;;;;;;2.20;0.70;;;26.60;52.00;25.60;101182.00;;;;5075732;28;20036;-71
2022/08/27 01:39:41;;;;;;;1.95;0.60;;;26.60;52.00;25.60;101182.00;;;;5083616;28;20500;-71
2022/08/27 01:42:34;;;;;;;1.55;0.75;;;26.60;52.00;25.60;101178.00;;;;5083018;28;20068;-71
2022/08/27 01:45:24;;;;;;;2.15;1.00;;;26.50;52.00;25.60;101186.00;;;;5059617;28;20062;-71
2022/08/27 01:48:10;;;;;;;1.45;0.60;;;26.60;52.00;25.60;101185.00;;;;5077517;28;20084;-72
2022/08/27 01:50:56;;;;;;;0.93;0.73;;;26.60;52.00;25.60;101180.00;;;;5079428;28;20131;-71
2022/08/27 01:53:42;;;;;;;1.50;0.50;;;26.60;52.00;25.60;101187.00;;;;5068675;28;20169;-71
2022/08/27 01:56:28;;;;;;;1.73;0.68;;;26.60;52.00;25.60;101190.00;;;;5055729;28;20039;-71
2022/08/27 01:59:14;;;;;;;1.75;0.70;;;26.60;52.10;25.60;101187.00;;;;5067815;28;20036;-71
2022/08/27 02:02:01;;;;;;;0.82;0.47;;;26.50;52.00;25.60;101182.00;;;;5085978;28;20048;-71
2022/08/27 02:04:49;;;;;;;1.42;0.60;;;26.50;52.10;25.60;101176.00;;;;5070048;28;20050;-71
2022/08/27 02:07:36;;;;;;;1.45;0.70;;;26.50;52.10;25.60;101176.00;;;;5077428;28;20076;-72
2022/08/27 02:10:29;;;;;;;1.20;0.60;;;26.60;52.10;25.60;101181.00;;;;5078455;28;20044;-71
2022/08/27 02:13:15;;;;;;;2.65;0.80;;;26.50;52.70;25.60;101181.00;;;;5067516;28;20060;-71
2022/08/27 02:16:02;;;;;;;2.13;0.77;;;26.50;52.00;25.60;101179.00;;;;5068280;28;20131;-71
2022/08/27 02:18:48;;;;;;;0.73;0.50;;;26.50;52.00;25.60;101184.00;;;;5078600;28;20040;-71
2022/08/27 02:21:34;;;;;;;1.60;0.70;;;26.50;52.10;25.60;101187.00;;;;5076422;28;20509;-71
2022/08/27 02:24:20;;;;;;;1.33;0.50;;;26.50;52.10;25.60;101178.00;;;;5079175;28;20072;-72
2022/08/27 02:27:06;;;;;;;1.20;0.40;;;26.50;52.10;25.60;101183.00;;;;5086949;28;20048;-71
2022/08/27 02:29:54;;;;;;;3.17;0.90;;;26.50;52.10;25.60;101178.00;;;;5080089;28;20052;-72
2022/08/27 02:32:40;;;;;;;1.45;0.52;;;26.50;52.10;25.60;101176.00;;;;5072440;28;20044;-71
2022/08/27 02:35:26;;;;;;;0.52;0.52;;;26.50;52.10;25.60;101175.00;;;;5076113;28;20048;-71
2022/08/27 02:38:12;;;;;;;1.35;0.68;;;26.60;52.10;25.60;101178.00;;;;5084522;28;20047;-71
2022/08/27 02:40:58;;;;;;;1.38;0.38;;;26.50;52.10;25.60;101179.00;;;;5070632;28;20391;-71
2022/08/27 02:43:45;;;;;;;1.70;0.60;;;26.50;52.10;25.60;101182.00;;;;5093824;28;20036;-71
2022/08/27 02:46:31;;;;;;;1.98;0.50;;;26.50;52.10;25.60;101184.00;;;;5081190;28;20477;-71
2022/08/27 02:49:17;;;;;;;1.33;0.63;;;26.40;52.10;25.60;101181.00;;;;5078630;28;20287;-71
2022/08/27 02:52:03;;;;;;;1.80;0.40;;;26.50;52.10;25.60;101173.00;;;;5079419;28;20494;-71
2022/08/27 02:54:49;;;;;;;3.83;0.70;;;26.50;52.10;25.60;101176.00;;;;5078491;28;20183;-71
2022/08/27 02:57:35;;;;;;;0.60;0.50;;;26.50;52.10;25.60;101177.00;;;;5080717;28;20040;-71
2022/08/27 03:00:22;;;;;;;0.80;0.50;;;26.50;52.10;25.60;101171.00;;;;5079242;28;20412;-71
2022/08/27 03:03:09;;;;;;;0.68;0.50;;;26.50;52.10;25.60;101177.00;;;;5070776;28;20489;-71
2022/08/27 03:05:56;;;;;;;1.70;0.60;;;26.50;52.10;25.50;101168.00;;;;5079436;28;20136;-72
2022/08/27 03:08:43;;;;;;;1.25;0.50;;;26.50;52.80;25.60;101178.00;;;;5074211;28;20654;-71
2022/08/27 03:11:30;;;;;;;0.82;0.38;;;26.40;52.10;25.60;101168.00;;;;5085213;28;20044;-71
2022/08/27 03:14:16;;;;;;;1.35;0.50;;;26.40;52.10;25.50;101164.00;;;;5066943;28;20036;-71
2022/08/27 03:20:10;;;;;;;1.02;0.80;;;26.40;52.10;25.50;101157.00;;;;5086061;28;20082;-71
2022/08/27 03:22:57;;;;;;;0.57;0.30;;;26.40;52.10;25.50;101166.00;;;;5069903;28;20047;-71
2022/08/27 03:25:54;;;;;;;1.83;0.70;;;26.40;52.10;25.50;101170.00;;;;5088212;28;20113;-71
2022/08/27 03:28:40;;;;;;;0.85;0.60;;;26.40;52.10;25.50;101177.00;;;;5071789;28;20054;-71
2022/08/27 03:31:27;;;;;;;2.42;0.65;;;26.40;52.10;25.50;101177.00;;;;5078328;28;20028;-71
2022/08/27 03:34:13;;;;;;;2.00;0.32;;;26.40;52.10;25.50;101176.00;;;;5074135;28;20040;-71
2022/08/27 03:37:00;;;;;;;0.90;0.50;;;26.40;52.10;25.50;101178.00;;;;5079978;28;20061;-71
2022/08/27 03:39:46;;;;;;;2.08;0.55;;;26.40;52.10;25.50;101177.00;;;;5081040;28;20047;-71
2022/08/27 03:42:33;;;;;;;1.35;0.50;;;26.30;52.00;25.50;101184.00;;;;5085173;28;20047;-71
2022/08/27 03:45:19;;;;;;;0.85;0.60;;;26.40;52.00;25.50;101180.00;;;;5080684;28;20047;-71
2022/08/27 03:48:05;;;;;;;0.77;0.35;;;26.40;52.00;25.50;101180.00;;;;5081046;28;20499;-71
2022/08/27 03:50:51;;;;;;;0.70;0.35;;;26.40;52.00;25.50;101180.00;;;;5073466;28;20550;-71
2022/08/27 03:53:39;;;;;;;0.30;0.30;;;26.40;52.10;25.50;101179.00;;;;5088816;28;20089;-71
2022/08/27 03:56:25;;;;;;;1.48;0.60;;;26.40;52.00;25.50;101174.00;;;;5072272;28;20045;-71
2022/08/27 03:59:11;;;;;;;0.98;0.47;;;26.40;52.10;25.50;101177.00;;;;5072729;28;20476;-71
2022/08/27 04:01:57;;;;;;;1.95;0.65;;;26.40;52.00;25.50;101180.00;;;;5085474;28;20044;-71
2022/08/27 04:04:43;;;;;;;1.05;0.35;;;26.40;52.00;25.50;101173.00;;;;5078692;28;20044;-71
2022/08/27 04:07:29;;;;;;;1.23;0.60;;;26.40;52.00;25.50;101176.00;;;;5074567;28;20055;-71
2022/08/27 04:10:16;;;;;;;1.55;0.68;;;26.40;52.00;25.50;101173.00;;;;5081202;28;20036;-71
2022/08/27 04:13:02;;;;;;;2.93;0.47;;;26.40;52.00;25.50;101178.00;;;;5088087;28;20417;-71
2022/08/27 04:15:49;;;;;;;2.08;0.50;;;26.40;52.00;25.50;101175.00;;;;5085886;28;20048;-71
2022/08/27 04:18:35;;;;;;;3.75;0.52;;;26.40;51.90;25.50;101176.00;;;;5076277;28;20400;-71
2022/08/27 04:21:22;;;;;;;1.63;0.40;;;26.30;51.80;25.50;101182.00;;;;5078913;28;20047;-71
2022/08/27 04:24:09;;;;;;;0.68;0.45;;;26.40;51.90;25.50;101173.00;;;;5089624;28;20064;-71
2022/08/27 04:26:56;;;;;;;1.85;0.47;;;26.30;51.80;25.50;101179.00;;;;5075777;28;20415;-71
2022/08/27 04:29:42;;;;;;;0.82;0.43;;;26.40;51.90;25.50;101188.00;;;;5054724;28;20122;-71
2022/08/27 04:32:28;;;;;;;2.47;0.40;;;26.40;51.90;25.50;101190.00;;;;5089181;28;20075;-71
2022/08/27 04:35:14;;;;;;;1.45;0.40;;;26.40;51.80;25.50;101193.00;;;;5074072;28;20036;-71
2022/08/27 04:38:00;;;;;;;2.03;0.40;;;26.40;51.80;25.50;101197.00;;;;5062177;28;20121;-71
2022/08/27 04:44:02;;;;;;;1.45;0.40;;;26.30;51.80;25.40;101199.00;;;;5089187;28;20043;-71
2022/08/27 04:46:49;;;;;;;2.73;0.57;;;26.30;51.80;25.50;101201.00;;;;5056669;28;20515;-71
2022/08/27 04:49:35;;;;;;;1.65;0.50;;;26.30;51.80;25.50;101197.00;;;;5071687;28;20370;-71
2022/08/27 04:52:22;;;;;;;1.20;0.45;;;26.40;51.80;25.40;101200.00;;;;5074789;28;20044;-71
2022/08/27 04:55:08;;;;;;;1.27;0.40;;;26.30;51.70;25.50;101200.00;;;;5080169;28;20048;-71
2022/08/27 04:57:54;;;;;;;1.33;0.77;;;26.30;51.80;25.40;101207.00;;;;5084580;28;20543;-71
2022/08/27 05:00:42;;;;;;;0.77;0.55;;;26.30;51.80;25.40;101205.00;;;;5073549;28;20051;-71
2022/08/27 05:03:28;;;;;;;0.60;0.32;;;26.30;51.80;25.40;101204.00;;;;5085469;28;20075;-71
2022/08/27 05:06:14;;;;;;;1.35;0.70;;;26.30;51.70;25.40;101196.00;;;;5079706;28;20476;-71
2022/08/27 05:09:00;;;;;;;1.38;0.57;;;26.30;51.80;25.40;101201.00;;;;5090755;28;20040;-71
2022/08/27 05:11:46;;;;;;;1.67;0.57;;;26.30;51.80;25.50;101210.00;;;;5081744;28;20047;-71
2022/08/27 05:14:32;;;;;;;1.33;0.50;;;26.30;51.70;25.40;101210.00;;;;5070582;28;20074;-71
2022/08/27 05:17:18;;;;;;;0.75;0.35;;;26.30;51.70;25.40;101209.00;;;;5083567;28;20038;-71
2022/08/27 05:20:05;;;;;;;2.33;0.47;;;26.30;51.70;25.40;101209.00;;;;5083110;28;20048;-71
2022/08/27 05:22:51;;;;;;;1.58;0.60;;;26.30;51.70;25.40;101217.00;;;;5078709;28;20307;-73
2022/08/27 05:25:39;;;;;;;1.88;0.55;;;26.30;51.70;25.40;101208.00;;;;5079603;28;20032;-72
2022/08/27 05:28:26;;;;;;;0.75;0.50;;;26.30;51.70;25.40;101208.00;;;;5068931;28;20481;-72
2022/08/27 05:31:13;;;;;;;0.93;0.50;;;26.30;51.60;25.40;101211.00;;;;5079968;28;20051;-73
2022/08/27 05:34:00;;;;;;;1.88;0.63;;;26.30;51.60;25.40;101214.00;;;;5069927;28;20040;-71
2022/08/27 05:36:46;;;;;;;1.45;0.50;;;26.30;51.60;25.40;101216.00;;;;5082098;28;20043;-71
2022/08/27 05:39:32;;;;;;;1.70;0.75;;;26.30;51.60;25.40;101227.00;;;;5084051;28;20155;-71
2022/08/27 05:42:18;;;;;;;0.73;0.25;;;26.30;51.70;25.40;101224.00;;;;5085985;28;20044;-72
2022/08/27 05:45:05;;;;;;;1.23;0.50;;;26.30;51.60;25.40;101221.00;;;;5081855;28;20046;-71
2022/08/27 05:47:51;;;;;;;2.17;0.65;;;26.30;51.60;25.40;101216.00;;;;5087890;28;20431;-72
2022/08/27 05:50:38;;;;;;;1.33;0.40;;;26.30;51.60;25.40;101210.00;;;;5086487;28;20051;-71
2022/08/27 05:53:25;;;;;;;0.55;0.30;;;26.30;51.60;25.40;101213.00;;;;5074045;28;20082;-71
2022/08/27 05:56:19;;;;;;;2.03;0.47;;;26.30;51.60;25.40;101209.00;;;;5077232;28;20044;-71
2022/08/27 06:02:09;;;;;;;1.98;0.60;;;26.30;51.60;25.40;101216.00;;;;5080437;28;20097;-71
2022/08/27 06:04:55;;;;;;;1.90;0.65;;;26.30;51.50;25.40;101218.00;;;;5079065;28;20047;-71
2022/08/27 06:07:41;;;;;;;1.50;0.50;;;26.30;51.60;25.40;101219.00;;;;5075783;28;20052;-72
2022/08/27 06:10:27;;;;;;;4.28;0.73;;;26.30;51.60;25.40;101213.00;;;;5081268;28;20125;-72
2022/08/27 06:13:14;;;;;;;2.08;0.68;;;26.20;51.50;25.40;101220.00;;;;5082725;28;20040;-72
2022/08/27 06:16:14;;;;;;;1.20;0.38;;;26.30;51.60;25.40;101218.00;;;;5092882;28;20040;-73
2022/08/27 06:19:00;;;;;;;0.55;0.32;;;26.20;51.40;25.40;101213.00;;;;5064988;28;20114;-72
2022/08/27 06:21:46;;;;;;;3.60;0.70;;;26.30;51.60;25.40;101213.00;;;;5046711;28;20040;-72
2022/08/27 06:24:32;;;;;;;3.03;0.57;;;26.20;51.50;25.40;101212.00;;;;5072276;28;20040;-72
2022/08/27 06:27:19;;;;;;;0.82;0.40;;;26.30;51.70;25.40;101216.00;;;;5079600;28;20040;-71
2022/08/27 06:30:07;;;;;;;1.75;0.57;;;26.30;51.60;25.40;101225.00;;;;5090403;28;20074;-71
2022/08/27 06:32:53;;;;;;;1.13;0.50;;;26.30;51.50;25.40;101223.00;;;;5084141;28;20065;-71
2022/08/27 06:35:39;;;;;;;1.98;0.50;;;26.30;51.50;25.40;101219.00;;;;5077404;28;20040;-71
2022/08/27 06:38:26;;;;;;;1.67;0.50;;;26.30;51.50;25.40;101216.00;;;;5060066;28;20036;-72
2022/08/27 06:41:13;;;;;;;2.08;0.70;;;26.20;51.40;25.40;101217.00;;;;5070952;28;20473;-71
2022/08/27 06:44:00;;;;;;;4.78;0.90;;;26.30;51.40;25.40;101218.00;;;;5090030;28;20082;-72
2022/08/27 06:46:46;;;;;;;1.55;0.40;;;26.20;51.30;25.40;101225.00;;;;5078207;28;20494;-71
2022/08/27 06:49:32;;;;;;;3.70;0.82;;;26.20;51.30;25.40;101221.00;;;;5078100;28;20043;-72
2022/08/27 06:52:18;;;;;;;3.92;1.00;;;26.20;50.80;25.40;101224.00;;;;5089877;28;20465;-71
2022/08/27 06:55:05;;;;;;;3.70;0.73;;;26.20;50.50;25.30;101226.00;;;;5079535;28;20032;-71
2022/08/27 06:57:51;;;;;;;4.07;0.57;;;26.20;50.40;25.30;101219.00;;;;5078881;28;20047;-71
2022/08/27 07:00:37;;;;;;;0.93;0.50;;;26.30;50.30;25.30;101232.00;;;;5075133;28;20044;-71
2022/08/27 07:03:23;;;;;;;3.97;1.00;;;26.30;50.30;25.30;101233.00;;;;5078726;28;20040;-71
2022/08/27 07:06:11;;;;;;;7.90;0.70;;;26.20;50.20;25.30;101229.00;;;;5087798;28;20047;-72
2022/08/27 07:08:58;;;;;;;6.63;1.00;;;26.30;50.20;25.30;101231.00;;;;5069491;28;20510;-72
2022/08/27 07:11:44;;;;;;;1.77;0.57;;;26.30;50.20;25.30;101228.00;;;;5072495;28;20111;-71
2022/08/27 07:14:30;;;;;;;2.50;0.68;;;26.30;50.10;25.30;101239.00;;;;5073346;28;20568;-71
2022/08/27 07:17:17;;;;;;;4.55;0.70;;;26.30;50.20;25.30;101234.00;;;;5077671;28;20032;-71
2022/08/27 07:20:04;;;;;;;5.15;1.65;;;26.20;50.10;25.20;101237.00;;;;5079865;28;20041;-71
2022/08/27 07:22:53;;;;;;;;;;;26.30;50.20;25.20;101238.00;;;;5063053;28;20059;-72
2022/08/27 07:25:40;;;;;;;3.42;0.77;;;26.30;50.30;25.20;101246.00;;;;5080804;28;19930;-72
2022/08/27 07:28:27;;;;;;;;;;;26.30;50.00;25.20;101242.00;;;;5068067;28;20052;-72
2022/08/27 07:31:18;;;;;;;8.52;1.35;;;26.30;50.20;25.20;101246.00;;;;5084475;28;19916;-71
2022/08/27 07:34:04;;;;;;;6.07;1.40;;;26.30;50.00;25.20;101252.00;;;;5070811;28;20032;-71
2022/08/27 07:36:50;;;;;;;6.45;1.13;;;26.30;50.20;25.20;101259.00;;;;5053913;28;20040;-72
2022/08/27 07:39:36;;;;;;;4.30;0.80;;;26.30;50.20;25.20;101255.00;;;;5081417;28;20401;-74
2022/08/27 07:45:28;;;;;;;7.55;0.85;;;26.20;50.40;25.30;101256.00;;;;5078785;28;20042;-72
2022/08/27 07:48:15;;;;;;;15.88;1.55;;;26.20;50.20;25.20;101263.00;;;;5051703;28;20043;-74
2022/08/27 07:51:04;;;;;;;9.95;1.55;;;26.20;50.20;25.30;101261.00;;;;5078532;28;20044;-73
2022/08/27 07:53:50;;;;;;;11.32;2.15;;;26.20;50.20;25.30;101264.00;;;;5070145;28;20043;-73
2022/08/27 07:56:36;;;;;;;10.77;1.05;;;26.20;50.30;25.30;101265.00;;;;5076451;28;20048;-73
2022/08/27 07:59:23;;;;;;;5.50;1.13;;;26.20;50.30;25.30;101268.00;;;;5078971;28;20508;-73
2022/08/27 08:02:09;;;;;;;5.38;1.27;;;26.20;50.40;25.30;101267.00;;;;5084925;28;20032;-74
2022/08/27 08:04:55;;;;;;;6.40;1.35;;;26.20;50.40;25.30;101263.00;;;;5077986;28;20037;-73
2022/08/27 08:07:41;;;;;;;10.73;1.25;;;26.20;50.40;25.30;101267.00;;;;5085354;28;20481;-73
2022/08/27 08:10:27;;;;;;;9.60;1.65;;;26.20;50.30;25.30;101277.00;;;;5066773;28;20067;-73
2022/08/27 08:13:17;;;;;;;11.23;1.40;;;26.20;50.30;25.30;101272.00;;;;5082032;28;20260;-74
2022/08/27 08:16:03;;;;;;;6.63;1.20;;;26.20;50.20;25.30;101271.00;;;;5069413;28;20040;-76
2022/08/27 08:18:50;;;;;;;8.95;1.10;;;26.20;50.30;25.30;101272.00;;;;5090236;28;20040;-75
2022/08/27 08:21:37;;;;;;;8.63;1.33;;;26.30;50.30;25.30;101265.00;;;;5079714;28;20573;-74
2022/08/27 08:24:23;;;;;;;5.75;1.08;;;26.30;50.20;25.30;101271.00;;;;5081310;28;20122;-74
2022/08/27 08:27:10;;;;;;;8.48;1.45;;;26.20;50.20;25.30;101270.00;;;;5081876;28;20032;-75
2022/08/27 08:29:56;;;;;;;10.10;1.48;;;26.30;50.20;25.30;101275.00;;;;5078913;28;20320;-72
2022/08/27 08:32:42;;;;;;;7.25;1.17;;;26.20;50.20;25.30;101268.00;;;;5094211;28;20044;-72
2022/08/27 08:35:28;;;;;;;5.47;1.13;;;26.20;50.20;25.30;101279.00;;;;5086129;28;20453;-73
2022/08/27 08:38:16;;;;;;;6.47;1.23;;;26.30;50.20;25.30;101271.00;;;;5079160;28;20482;-72
2022/08/27 08:41:03;;;;;;;5.63;1.40;;;26.30;50.20;25.30;101277.00;;;;5073497;28;20046;-72
2022/08/27 08:43:50;;;;;;;4.82;0.98;;;26.30;51.00;25.30;101276.00;;;;5072230;28;20047;-73
2022/08/27 08:46:47;;;;;;;4.43;0.90;;;26.30;51.00;25.30;101280.00;;;;5073914;28;20044;-73
2022/08/27 08:49:36;;;;;;;4.32;0.90;;;26.30;50.20;25.30;101275.00;;;;5070315;28;20584;-72
2022/08/27 08:52:34;;;;;;;5.97;0.93;;;26.30;50.20;25.30;101272.00;;;;5082020;28;20036;-72
2022/08/27 08:55:42;;;;;;;3.42;0.85;;;26.30;50.20;25.30;101281.00;;;;5087607;28;20111;-72
2022/08/27 08:58:45;;;;;;;3.67;0.82;;;26.30;50.30;25.30;101279.00;;;;5070495;28;20040;-72
2022/08/27 09:01:31;;;;;;;3.08;0.63;;;26.30;50.20;25.30;101277.00;;;;5071928;28;20275;-72
2022/08/27 09:04:17;;;;;;;5.60;0.95;;;26.30;50.20;25.30;101281.00;;;;5072209;28;20035;-72
2022/08/27 09:07:34;;;;;;;4.20;1.10;;;26.30;50.20;25.30;101267.00;;;;5074972;28;20047;-72
2022/08/27 09:10:33;;;;;;;3.25;0.80;;;26.30;50.20;25.30;101277.00;;;;5076507;28;20044;-72
2022/08/27 09:13:44;;;;;;;4.97;1.00;;;26.30;50.20;25.30;101281.00;;;;5073775;28;20043;-72
2022/08/27 09:16:31;;;;;;;6.78;1.15;;;26.20;50.10;25.30;101279.00;;;;5069549;28;20040;-72
2022/08/27 09:19:17;;;;;;;2.87;0.77;;;26.30;50.20;25.30;101284.00;;;;5074533;28;20115;-72
2022/08/27 09:22:49;;;;;;;3.80;0.90;;;26.30;50.20;25.30;101277.00;;;;5082789;28;20277;-72
2022/08/27 09:25:37;;;;;;;4.85;0.75;;;26.30;50.10;25.30;101285.00;;;;5080621;28;20482;-72
2022/08/27 09:31:30;;;;;;;5.28;0.90;;;26.30;50.10;25.30;101288.00;;;;5067638;28;20504;-72
2022/08/27 09:34:16;;;;;;;1.60;0.70;;;26.20;50.00;25.30;101286.00;;;;5054405;28;20066;-72
2022/08/27 09:37:23;;;;;;;2.83;0.80;;;26.30;50.00;25.30;101290.00;;;;5084003;28;20047;-72
2022/08/27 09:40:31;;;;;;;3.92;0.80;;;26.30;49.90;25.30;101281.00;;;;5069863;28;20051;-73
2022/08/27 09:43:23;;;;;;;2.38;0.93;;;26.20;49.80;25.30;101291.00;;;;5081611;28;20044;-72
2022/08/27 09:46:23;;;;;;;1.92;0.80;;;26.30;49.90;25.30;101280.00;;;;5068110;28;20856;-72
2022/08/27 09:49:14;;;;;;;2.38;1.02;;;26.30;49.80;25.30;101284.00;;;;5070577;28;20104;-72
2022/08/27 09:52:00;;;;;;;3.30;1.00;;;26.30;49.80;25.30;101280.00;;;;5057033;28;20409;-72
2022/08/27 09:54:47;;;;;;;1.10;0.73;;;26.30;49.80;25.30;101283.00;;;;5055732;28;20402;-72
2022/08/27 09:57:39;;;;;;;2.72;0.82;;;26.30;49.80;25.30;101278.00;;;;5074686;28;20493;-72
2022/08/27 10:00:37;;;;;;;4.03;0.60;;;26.20;49.60;25.30;101282.00;;;;5084433;28;20043;-72
2022/08/27 10:03:24;;;;;;;1.23;0.35;;;26.30;49.60;25.30;101282.00;;;;5072660;28;20512;-72
2022/08/27 10:06:10;;;;;;;1.05;0.60;;;26.30;49.60;25.30;101276.00;;;;5077324;28;20071;-72
2022/08/27 10:09:00;;;;;;;1.38;0.60;;;26.30;49.60;25.30;101281.00;;;;5055993;28;20097;-72
2022/08/27 10:12:04;;;;;;;2.42;0.60;;;26.30;49.60;25.30;101269.00;;;;5061440;28;20568;-72
2022/08/27 10:14:54;;;;;;;4.60;0.98;;;26.30;49.50;25.30;101265.00;;;;5068022;28;20040;-72
2022/08/27 10:18:11;;;;;;;1.88;0.70;;;26.20;49.40;25.30;101270.00;;;;5059558;28;20118;-72
2022/08/27 10:21:17;;;;;;;2.13;0.60;;;26.30;49.50;25.30;101271.00;;;;5076411;28;20037;-73
2022/08/27 10:24:24;;;;;;;2.55;0.95;;;26.30;49.40;25.30;101285.00;;;;5072213;28;20043;-73
2022/08/27 10:27:28;;;;;;;1.83;0.50;;;26.30;49.30;25.30;101281.00;;;;5074240;28;20043;-72
2022/08/27 10:30:31;;;;;;;1.23;0.65;;;26.30;49.20;25.30;101278.00;;;;5073307;28;20078;-73
2022/08/27 10:33:25;;;;;;;1.92;0.70;;;26.30;49.20;25.30;101278.00;;;;5055166;28;20394;-73
2022/08/27 10:36:29;;;;;;;1.35;0.88;;;26.30;49.30;25.30;101276.00;;;;5060491;28;20136;-73
2022/08/27 10:39:51;;;;;;;1.27;0.70;;;26.30;50.00;25.30;101285.00;;;;5082455;28;20039;-72
2022/08/27 10:42:55;;;;;;;2.67;0.73;;;26.30;49.20;25.30;101286.00;;;;5074653;28;20055;-72
2022/08/27 10:46:44;;;;;;;2.33;0.50;;;26.30;49.10;25.30;101279.00;;;;5074992;28;20040;-72
2022/08/27 10:49:53;;;;;;;1.98;0.52;;;26.30;49.20;25.30;101284.00;;;;5057543;28;20039;-72
2022/08/27 10:52:50;;;;;;;0.90;0.50;;;26.30;49.00;25.30;101282.00;;;;5081121;28;20044;-72
2022/08/27 10:55:51;;;;;;;2.38;0.70;;;26.30;49.20;25.30;101291.00;;;;5071206;28;20482;-72
2022/08/27 10:59:08;;;;;;;1.90;0.60;;;26.30;49.00;25.30;101287.00;;;;5069592;28;20044;-72
2022/08/27 11:02:03;;;;;;;1.08;0.60;;;26.30;49.10;25.30;101287.00;;;;5056459;28;20043;-72
2022/08/27 11:04:55;;;;;;;1.55;0.65;;;26.40;49.00;25.30;101291.00;;;;5058130;28;20063;-73
2022/08/27 11:07:46;;;;;;;1.80;0.55;;;26.30;49.00;25.30;101292.00;;;;5067820;28;20039;-72
2022/08/27 11:10:35;;;;;;;2.30;0.70;;;26.30;49.00;25.30;101286.00;;;;5049672;28;20040;-72
2022/08/27 11:13:37;;;;;;;1.42;0.85;;;26.20;49.00;25.30;101284.00;;;;5062116;28;20044;-72
2022/08/27 11:16:55;;;;;;;1.30;0.50;;;26.30;49.00;25.30;101272.00;;;;5083502;28;20165;-73
2022/08/27 11:20:13;;;;;;;1.85;0.80;;;26.30;49.00;25.30;101287.00;;;;5065662;28;20052;-72
2022/08/27 11:23:12;;;;;;;2.10;0.80;;;26.30;48.90;25.30;101283.00;;;;5059619;28;20110;-72
2022/08/27 11:26:03;;;;;;;1.48;0.50;;;26.30;48.90;25.30;101283.00;;;;5060042;28;20430;-72
2022/08/27 11:28:53;;;;;;;1.25;0.45;;;26.20;48.70;25.30;101287.00;;;;5061074;28;20136;-72
2022/08/27 11:31:48;;;;;;;0.95;0.45;;;26.30;48.80;25.30;101270.00;;;;5084617;28;20051;-72
2022/08/27 11:34:47;;;;;;;1.80;0.80;;;26.30;48.90;25.30;101272.00;;;;5075194;28;20081;-72
2022/08/27 11:38:04;;;;;;;5.95;1.00;;;26.30;48.90;25.30;101280.00;;;;5068258;28;20079;-72
2022/08/27 11:41:44;;;;;;;2.78;0.85;;;26.30;48.80;25.30;101281.00;;;;5093954;28;20131;-72
2022/08/27 11:44:30;;;;;;;1.23;0.50;;;26.30;48.80;25.30;101283.00;;;;5077275;28;20036;-72
2022/08/27 11:47:22;;;;;;;2.83;0.60;;;26.40;48.90;25.30;101279.00;;;;5072868;28;20050;-72
2022/08/27 11:50:16;;;;;;;1.27;0.60;;;26.30;48.60;25.30;101278.00;;;;5060353;28;20044;-72
2022/08/27 11:53:04;;;;;;;1.10;0.57;;;26.30;48.60;25.30;101275.00;;;;5051381;28;20032;-72
2022/08/27 11:55:52;;;;;;;2.25;0.68;;;26.30;48.80;25.30;101270.00;;;;5058295;28;20517;-72
2022/08/27 11:58:39;;;;;;;2.50;1.30;;;26.40;48.80;25.30;101281.00;;;;5067524;28;20037;-72
2022/08/27 12:01:28;;;;;;;2.33;0.70;;;26.30;48.60;25.30;101270.00;;;;5084127;28;20047;-72
2022/08/27 12:04:35;;;;;;;4.35;0.80;;;26.30;48.50;25.30;101273.00;;;;5078059;28;20489;-72
2022/08/27 12:07:29;;;;;;;2.50;0.70;;;26.30;48.70;25.30;101276.00;;;;5088389;28;20036;-72
2022/08/27 12:10:31;;;;;;;4.80;0.82;;;26.30;48.60;25.30;101273.00;;;;5061226;28;20040;-72
2022/08/27 12:13:42;;;;;;;2.08;0.80;;;26.30;48.50;25.30;101272.00;;;;5073671;28;20064;-72
2022/08/27 12:16:57;;;;;;;1.38;0.60;;;26.30;48.60;25.30;101269.00;;;;5081401;28;20120;-72
2022/08/27 12:20:17;;;;;;;1.92;0.55;;;26.30;48.30;25.30;101269.00;;;;5063129;28;20044;-72
2022/08/27 12:23:45;;;;;;;2.15;0.60;;;26.30;48.30;25.30;101267.00;;;;5067363;28;20558;-72
2022/08/27 12:26:38;;;;;;;2.60;0.70;;;26.30;48.20;25.30;101276.00;;;;5089871;28;20491;-72
2022/08/27 12:29:36;;;;;;;2.05;0.70;;;26.30;48.20;25.30;101272.00;;;;5060355;28;20040;-72
2022/08/27 12:32:31;;;;;;;2.97;0.70;;;26.30;48.10;25.30;101264.00;;;;5068413;28;20031;-72
2022/08/27 12:35:44;;;;;;;2.42;0.85;;;26.30;48.20;25.30;101263.00;;;;5079379;28;20037;-72
2022/08/27 12:38:47;;;;;;;1.38;0.57;;;26.30;48.20;25.30;101263.00;;;;5069134;28;20044;-72
2022/08/27 12:41:38;;;;;;;2.28;0.47;;;26.30;48.10;25.30;101274.00;;;;5072227;28;20059;-72
2022/08/27 12:44:27;;;;;;;1.38;0.65;;;26.30;48.30;25.30;101272.00;;;;5082426;28;20052;-72
2022/08/27 12:47:15;;;;;;;1.38;0.60;;;26.40;48.30;25.30;101280.00;;;;5073396;28;20118;-72